Vremea acum in Brad - Romania

Vrei sa afli care e starea vremii acum in Arad - Romania? Dorim sa iti furnizam starea vremii pentru Arad - Romania. Starea vremii Arad - Romania pentru astazi.

Vremea acum in Brad

Temperatura: 16.7 °C

Este: Thundery outbreaks in nearby
Se simte ca: 16.7 °C
Innorat: 61 %
Precipitatii: 61 %
Presiune atmosferica: 1014 hPa
Umiditate: 70%
Vizibilitate: 9 km
Vantul bate din S cu 4.3 km/h

Evolutia vremii in Brad pe ore

Ora: 10:00
Thundery outbreaks in nearby
Temperatura: 16.5°C
Sansa de precipitatii: 61%
Ora Descriere Temp Se simte Precipitatii Umiditate Vant
00:00Patchy rain nearby12°11.7°74%74%E 6.5 KM/H
01:00Senin11.7°11.2°0%76%E 6.8 KM/H
02:00Senin11.5°11°0%78%E 6.8 KM/H
03:00Senin11.6°10.9°0%78%E 7.6 KM/H
04:00Thundery outbreaks in nearby10.8°10.5°0%81%E 5.8 KM/H
05:00Thundery outbreaks in nearby11.8°11.9°100%76%ENE 1.4 KM/H
06:00Thundery outbreaks in nearby11.4°11.4°0%78%ENE 2.5 KM/H
07:00Innorat11.7°11.7°0%78%E 5 KM/H
08:00Thundery outbreaks in nearby14.6°15.3°100%74%SE 4 KM/H
09:00Thundery outbreaks in nearby16.7°16.7°78%70%S 4.3 KM/H
10:00Thundery outbreaks in nearby16.5°16.5°61%72%SSW 5 KM/H
11:00Patchy rain nearby16.3°16.3°87%75%SW 4.7 KM/H
12:00Patchy rain nearby16.5°16.5°85%73%WSW 5.8 KM/H
13:00Patchy rain nearby17.7°17.7°68%66%SW 9.4 KM/H
14:00Ploaie ușoară16.3°16.3°100%82%SSW 9.4 KM/H
15:00Ploi usoare15.1°15.1°100%91%S 5.4 KM/H
16:00Ploaie ușoară15°15.2°100%93%SSW 6.1 KM/H
17:00Ploi usoare14.2°14.6°100%96%SW 4.3 KM/H
18:00Ploi usoare14.6°15.1°100%93%WSW 4.3 KM/H
19:00Ploi usoare13.4°13.4°100%95%WSW 1.8 KM/H
20:00Ceata12.8°12.8°73%95%S 1.1 KM/H
21:00Ceata12.1°12.2°0%95%SSE 1.8 KM/H
22:00Ceata11.7°11.7°0%94%SE 2.9 KM/H
23:00Ceata11.5°11.5°0%94%SE 2.9 KM/H




tutorials